Thursday, July 24, 2014
04:18 UTC
  |  Log In   |  Register Free
Airport Search:

Enterprise Municipal Airport
(KEDN)

Enterprise Municipal Airport Diagram
No Airport Diagram Available

FAA data valid effective May 29, 2014 until July 24, 2014 (unless otherwise noted).

 
 
 
 
 
 
 
 
 
 
 
 
 
 

Current Aviation Weather for Enterprise Municipal Airport (KEDN)

The most recent METAR observation for KLOR was updated at: 0353 UTC
METAR Summary (Translated METAR)
KLOR
240353Z AUTO 22003KT 10SM CLR 26/22 A3002 RMK AO2 SLP161 T02560222 TSNO $
KOZR
(5.2 nm SE from KLOR)
240258Z AUTO 23005KT 10SM CLR 26/23 A3002 RMK AO2 SLP165 T02550225 52014 RVRNO
TAF Summary (Translated TAF)
KOZR
(5.2 nm SE from KLOR)
2400/2506 22009KT 9999 SCT030 SCT140 QNH2994INS BECMG 2417/2418 23010G15KT 8000 -SHRA SCT030 BKN045 QNH2999INS TEMPO 2418/2501 4800 -TSRA BKN030CB BECMG 2503/2504 21009KT 9999 NSW BKN020 QNH2994INS BECMG 2505/2506 20009KT 4800 BR BKN010 QNH2998INS TX30/2420Z TN22/2406Z
KDHN
(15.6 nm SE from KLOR)
231737Z 2318/2418 VRB05KT P6SM SCT030 FM231900 25007KT P6SM VCTS BKN040CB FM240000 23005KT P6SM SCT250 FM241000 25004KT 3SM BR FEW004 FM241400 26006KT P6SM SCT250
  Airport Weather Conditions for KEDN

Current weather conditions are
not available for EDN


The nearest NOAA weather station
is at LOR, (8.3 nm NE from EDN)
  
 Current Weather at LOR
78° F
Fair
Southwest winds at 3.5 mph
LOR NOAA Radar

Pressure: 30.02 in
Humidity: 82%
Wind: Southwest at 3.5 MPH (3 KT)
Dew Point: 72.0°F
Visibility: 10.00 mi


Airport Weather Forecast for KEDN

Translated METAR and TAF for KLOR
Translated METAR for KLOR (0412 UTC 24 July 2014)
found at http://aviationweather.gov/adds/metars/
 
METAR text: KLOR 240353Z AUTO 22003KT 10SM CLR 26/22 A3002 RMK AO2 SLP161 T02560222 TSNO $
Conditions at: KLOR (LOWE AHP/FT. RUC, AL, US) observed 0353 UTC 24 July 2014
Temperature: 25.6°C (78°F)
Dewpoint: 22.2°C (72°F) [RH = 82%]
Pressure (altimeter): 30.02 inches Hg (1016.7 mb)
[Sea-level pressure: 1016.1 mb]
Winds: from the SW (220 degrees) at 3 MPH (3 knots; 1.6 m/s)
Visibility: 10 or more miles (16+ km)
Ceiling: at least 12,000 feet AGL
Clouds: sky clear below 12,000 feet AGL
Weather:
SOME DATA ABOVE MAY BE INACCURATE!!!
"$" is an indication the sensor requires maintenance
Translated TAF for KLOR

There is no translated TAF available for this airport

Find All Airport Services Find A Hotel Find A Rental Car Find A Golf Course Find A Restaurant $100 Hamburger



FBO's on the Field
FBO Company Facility Photos Services Transportation Aviation Fuel Prices: Prices include tax
Catering Weather Repair Courtesy Rental Type 100LL JetA JetA+ MOGAS 8087
 
Enterprise Municipal Airport

This FBO has not yet been rated
FS:Epic
Last Updated: Jul-16
Login to update fuel prices
SS:
Contact Enterprise Municipal AirportMore FBO Information
 
Add another FBO Facility Photos Catering Weather Repair Courtesy Rental Type 100LL JetA JetA+ MOGAS 8087
Services Transportation Aviation Fuel Prices: Prices include tax


GlobalAir.com Airport Resource Center model-print
model-print
model-print
model-print